createdAt,value
2023-11-27T00:02:24.172Z,5.53
2023-11-27T00:04:51.103Z,3.05
2023-11-27T00:07:17.693Z,6.57
2023-11-27T00:09:44.245Z,3.38
2023-11-27T00:12:10.800Z,4.45
2023-11-27T00:14:37.336Z,7.85
2023-11-27T00:17:03.886Z,4.13
2023-11-27T00:19:30.627Z,4.47
2023-11-27T00:21:57.189Z,4.45
2023-11-27T00:24:23.797Z,5.60
2023-11-27T00:26:50.260Z,4.03
2023-11-27T00:29:16.745Z,6.82
2023-11-27T00:31:43.292Z,7.45
2023-11-27T00:34:09.808Z,3.25
2023-11-27T00:36:37.791Z,4.35
2023-11-27T00:39:04.327Z,4.80
2023-11-27T00:41:30.822Z,4.43
2023-11-27T00:43:57.339Z,4.50
2023-11-27T00:46:23.869Z,3.55
2023-11-27T00:48:50.393Z,3.10
2023-11-27T00:51:16.886Z,3.53
2023-11-27T00:53:43.443Z,6.60
2023-11-27T00:56:10.041Z,4.07
2023-11-27T00:58:37.144Z,6.78
2023-11-27T01:01:03.801Z,4.22
2023-11-27T01:03:30.319Z,8.73
2023-11-27T01:05:57.355Z,2.78
2023-11-27T01:08:25.518Z,3.42
2023-11-27T01:10:52.568Z,7.13
2023-11-27T01:13:19.445Z,3.50
2023-11-27T01:15:46.680Z,3.78
2023-11-27T01:18:13.185Z,4.03
2023-11-27T01:20:40.760Z,3.05
2023-11-27T01:23:07.269Z,6.28
2023-11-27T01:25:33.736Z,4.45
2023-11-27T01:28:01.135Z,5.65
2023-11-27T01:30:27.681Z,4.03
2023-11-27T01:32:54.192Z,6.00
2023-11-27T01:35:21.586Z,2.25
2023-11-27T01:37:48.663Z,3.90
2023-11-27T01:40:15.167Z,5.88
2023-11-27T01:42:41.882Z,4.55
2023-11-27T01:45:08.971Z,5.28
2023-11-27T01:47:35.452Z,3.50
2023-11-27T01:50:02.020Z,5.43
2023-11-27T01:52:29.843Z,3.53
2023-11-27T01:54:57.504Z,4.47
2023-11-27T01:57:24.889Z,5.72
2023-11-27T01:59:54.095Z,4.18
2023-11-27T02:02:20.885Z,2.55
2023-11-27T02:04:47.629Z,7.03
2023-11-27T02:07:14.492Z,3.42
2023-11-27T02:09:41.102Z,4.25
2023-11-27T02:12:07.745Z,2.55
2023-11-27T02:14:34.771Z,5.05
2023-11-27T02:17:01.317Z,6.60
2023-11-27T02:19:27.787Z,3.00
2023-11-27T02:21:54.291Z,3.70
2023-11-27T02:24:20.893Z,3.63
2023-11-27T02:26:47.419Z,3.30
2023-11-27T02:29:13.874Z,4.78
2023-11-27T02:31:40.456Z,2.45
2023-11-27T02:34:07.124Z,3.78
2023-11-27T02:36:36.491Z,4.78
2023-11-27T02:39:03.168Z,2.95
2023-11-27T02:41:29.736Z,3.63
2023-11-27T02:43:56.227Z,3.30
2023-11-27T02:46:22.713Z,6.45
2023-11-27T02:48:49.326Z,2.72
2023-11-27T02:51:16.335Z,3.38
2023-11-27T02:53:42.938Z,3.65
2023-11-27T02:56:10.060Z,3.55
2023-11-27T02:58:39.527Z,2.33
2023-11-27T03:01:09.182Z,2.10
2023-11-27T03:03:37.008Z,2.08
2023-11-27T03:06:03.984Z,2.78
2023-11-27T03:08:30.711Z,5.40
2023-11-27T03:11:00.114Z,2.85
2023-11-27T03:13:26.765Z,3.60
2023-11-27T03:15:53.528Z,3.58
2023-11-27T03:18:20.086Z,2.10
2023-11-27T03:20:46.560Z,6.22
2023-11-27T03:23:13.364Z,3.45
2023-11-27T03:25:39.996Z,3.25
2023-11-27T03:28:08.278Z,1.65
2023-11-27T03:30:34.756Z,2.72
2023-11-27T03:33:01.221Z,2.20
2023-11-27T03:35:28.521Z,2.05
2023-11-27T03:37:54.963Z,5.10
2023-11-27T03:40:21.407Z,3.10
2023-11-27T03:42:47.878Z,2.95
2023-11-27T03:45:14.506Z,2.53
2023-11-27T03:47:41.114Z,1.52
2023-11-27T03:50:07.696Z,5.80
2023-11-27T03:52:34.516Z,3.97
2023-11-27T03:55:01.042Z,1.90
2023-11-27T03:57:27.526Z,3.33
2023-11-27T03:59:54.037Z,7.97
2023-11-27T04:02:20.667Z,6.07
2023-11-27T04:04:47.753Z,13.38
2023-11-27T04:07:14.386Z,17.02
2023-11-27T04:09:41.745Z,22.08
2023-11-27T04:12:08.222Z,16.65
2023-11-27T04:14:34.679Z,13.30
2023-11-27T04:17:02.524Z,7.22
2023-11-27T04:19:29.757Z,7.82
2023-11-27T04:21:56.354Z,8.18
2023-11-27T04:24:22.858Z,6.57
2023-11-27T04:26:49.423Z,5.70
2023-11-27T04:29:15.867Z,8.30
2023-11-27T04:31:42.428Z,6.82
2023-11-27T04:34:08.977Z,4.70
2023-11-27T04:36:35.507Z,5.20
2023-11-27T04:39:01.996Z,3.80
2023-11-27T04:41:28.398Z,5.68
2023-11-27T04:43:54.810Z,4.90
2023-11-27T04:46:21.546Z,6.05
2023-11-27T04:48:48.102Z,4.18
2023-11-27T04:51:14.640Z,4.45
2023-11-27T04:53:41.093Z,7.20
2023-11-27T04:56:07.868Z,9.35
2023-11-27T04:58:34.270Z,5.15
2023-11-27T05:01:00.884Z,4.25
2023-11-27T05:03:28.350Z,7.60
2023-11-27T05:05:59.170Z,6.38
2023-11-27T05:08:26.835Z,4.55
2023-11-27T05:10:53.397Z,4.57
2023-11-27T05:13:19.927Z,3.58
2023-11-27T05:15:46.477Z,4.22
2023-11-27T05:18:13.989Z,2.70
2023-11-27T05:20:40.527Z,10.80
2023-11-27T05:23:07.091Z,5.40
2023-11-27T05:25:33.929Z,2.53
2023-11-27T05:28:00.528Z,2.40
2023-11-27T05:30:27.138Z,4.95
2023-11-27T05:32:54.033Z,3.03
2023-11-27T05:35:20.639Z,4.40
2023-11-27T05:37:47.225Z,6.65
2023-11-27T05:40:14.811Z,4.03
2023-11-27T05:42:41.862Z,3.83
2023-11-27T05:45:11.984Z,10.25
2023-11-27T05:47:40.538Z,3.80
2023-11-27T05:50:07.509Z,5.65
2023-11-27T05:52:34.738Z,5.70
2023-11-27T05:55:01.309Z,6.50
2023-11-27T05:57:27.856Z,7.45
2023-11-27T05:59:57.228Z,4.30
2023-11-27T06:02:23.720Z,4.80
2023-11-27T06:04:50.226Z,4.00
2023-11-27T06:07:16.751Z,5.38
2023-11-27T06:09:43.663Z,4.80
2023-11-27T06:12:11.614Z,3.80
2023-11-27T06:14:38.216Z,4.65
2023-11-27T06:17:06.866Z,3.78
2023-11-27T06:19:33.861Z,3.83
2023-11-27T06:22:00.615Z,4.72
2023-11-27T06:24:27.173Z,5.20
2023-11-27T06:26:53.707Z,3.45
2023-11-27T06:29:21.240Z,4.40
2023-11-27T06:31:47.863Z,6.00
2023-11-27T06:34:14.509Z,4.40
2023-11-27T06:36:41.899Z,3.13
2023-11-27T06:39:09.653Z,7.03
2023-11-27T06:41:37.443Z,5.65
2023-11-27T06:44:04.260Z,4.93
2023-11-27T06:46:30.915Z,5.05
2023-11-27T06:48:57.458Z,7.32
2023-11-27T06:51:23.924Z,4.38
2023-11-27T06:53:50.420Z,6.00
2023-11-27T06:56:16.884Z,5.35
2023-11-27T06:58:43.353Z,7.88
2023-11-27T07:01:10.811Z,8.07
2023-11-27T07:03:37.937Z,8.80
2023-11-27T07:06:05.725Z,6.93
2023-11-27T07:08:35.913Z,5.97
2023-11-27T07:11:03.811Z,7.97
2023-11-27T07:13:30.963Z,7.97
2023-11-27T07:15:57.846Z,7.13
2023-11-27T07:18:28.128Z,8.68
2023-11-27T07:20:58.976Z,6.63
2023-11-27T07:23:28.006Z,14.70
2023-11-27T07:25:54.895Z,7.05
2023-11-27T07:28:21.368Z,8.95
2023-11-27T07:30:47.916Z,9.57
2023-11-27T07:33:14.511Z,9.52
2023-11-27T07:35:40.984Z,7.45
2023-11-27T07:38:08.605Z,5.93
2023-11-27T07:40:35.534Z,6.97
2023-11-27T07:43:02.154Z,7.60
2023-11-27T07:48:39.156Z,6.68
2023-11-27T07:51:06.321Z,8.00
2023-11-27T07:53:33.160Z,7.20
2023-11-27T07:56:00.711Z,5.53
2023-11-27T07:58:27.283Z,5.80
2023-11-27T08:00:53.844Z,8.60
2023-11-27T08:03:20.452Z,4.90
2023-11-27T08:05:47.200Z,5.53
2023-11-27T08:08:14.508Z,6.18
2023-11-27T08:10:41.405Z,5.60
2023-11-27T08:13:09.631Z,9.15
2023-11-27T08:15:36.190Z,6.60
2023-11-27T08:18:05.617Z,9.20
2023-11-27T08:20:33.656Z,6.18
2023-11-27T08:23:00.287Z,5.32
2023-11-27T08:25:27.916Z,5.57
2023-11-27T08:27:55.185Z,8.95
2023-11-27T08:30:23.298Z,5.20
2023-11-27T08:32:50.843Z,4.55
2023-11-27T08:35:18.415Z,8.57
2023-11-27T08:37:45.106Z,6.38
2023-11-27T08:40:14.110Z,9.35
2023-11-27T08:42:41.353Z,7.53
2023-11-27T08:45:12.061Z,6.28
2023-11-27T08:47:39.557Z,4.73
2023-11-27T08:50:07.125Z,5.22
2023-11-27T08:52:33.686Z,4.90
2023-11-27T08:55:00.289Z,7.20
2023-11-27T08:57:26.930Z,7.70
2023-11-27T08:59:53.497Z,4.80
2023-11-27T09:02:20.172Z,4.63
2023-11-27T09:04:46.866Z,6.45
2023-11-27T09:07:13.387Z,5.82
2023-11-27T09:09:39.898Z,5.38
2023-11-27T09:12:06.345Z,6.75
2023-11-27T09:14:32.838Z,5.82
2023-11-27T09:17:00.497Z,5.28
2023-11-27T09:19:28.004Z,3.58
2023-11-27T09:21:56.374Z,4.43
2023-11-27T09:24:22.900Z,2.92
2023-11-27T09:26:49.419Z,7.82
2023-11-27T09:29:15.951Z,3.83
2023-11-27T09:31:43.211Z,5.68
2023-11-27T09:34:09.807Z,5.50
2023-11-27T09:36:36.374Z,4.85
2023-11-27T09:39:04.104Z,3.33
2023-11-27T09:41:31.664Z,3.92
2023-11-27T09:43:58.501Z,4.55
2023-11-27T09:46:25.537Z,4.10
2023-11-27T09:48:56.139Z,2.75
2023-11-27T09:51:23.944Z,5.20
2023-11-27T09:53:52.886Z,4.47
2023-11-27T09:56:22.532Z,2.88
2023-11-27T09:58:49.603Z,6.15
2023-11-27T10:01:16.903Z,3.55
2023-11-27T10:03:45.203Z,6.13
2023-11-27T10:06:13.078Z,4.10
2023-11-27T10:08:39.643Z,3.92
2023-11-27T10:11:06.720Z,5.95
2023-11-27T10:13:46.623Z,5.60
2023-11-27T10:16:24.583Z,5.20
2023-11-27T10:18:53.349Z,4.80
2023-11-27T10:21:22.772Z,8.45
2023-11-27T10:23:51.182Z,2.25
2023-11-27T10:26:20.685Z,3.67
2023-11-27T10:28:49.572Z,5.72
2023-11-27T10:31:16.470Z,4.50
2023-11-27T10:33:43.279Z,3.47
2023-11-27T10:36:11.068Z,3.20
2023-11-27T10:38:37.713Z,5.50
2023-11-27T10:41:06.541Z,5.70
2023-11-27T10:43:35.512Z,6.43
2023-11-27T10:46:04.284Z,7.28
2023-11-27T10:48:41.100Z,5.05
2023-11-27T10:51:13.665Z,2.35
2023-11-27T10:53:41.899Z,4.97
2023-11-27T10:56:10.918Z,2.95
2023-11-27T10:58:37.509Z,4.25
2023-11-27T11:01:09.070Z,3.15
2023-11-27T11:03:38.367Z,3.30
2023-11-27T11:06:08.059Z,2.30
2023-11-27T11:08:36.152Z,9.02
2023-11-27T11:11:07.458Z,2.72
2023-11-27T11:13:34.800Z,3.03
2023-11-27T11:16:15.926Z,2.65
2023-11-27T11:18:53.424Z,7.93
2023-11-27T11:21:31.532Z,4.78
2023-11-27T11:23:59.295Z,5.03
2023-11-27T11:26:41.599Z,10.18
2023-11-27T11:29:19.081Z,5.65
2023-11-27T11:31:48.839Z,6.25
2023-11-27T11:34:23.986Z,4.38
2023-11-27T11:37:01.413Z,5.15
2023-11-27T11:39:28.290Z,3.75
2023-11-27T11:42:04.615Z,4.00
2023-11-27T11:44:36.335Z,6.03
2023-11-27T11:47:21.477Z,4.82
2023-11-27T11:49:48.033Z,5.00
2023-11-27T11:52:17.272Z,2.80
2023-11-27T11:54:44.151Z,2.53
2023-11-27T11:57:14.233Z,4.28
2023-11-27T11:59:40.868Z,5.25
2023-11-27T12:02:12.538Z,2.47
2023-11-27T12:07:07.062Z,2.30
2023-11-27T12:09:34.724Z,1.15
2023-11-27T12:12:01.772Z,1.75
2023-11-27T12:14:33.650Z,1.50
2023-11-27T12:17:01.351Z,2.85
2023-11-27T12:19:28.857Z,5.35
2023-11-27T12:21:55.503Z,1.98
2023-11-27T12:24:22.678Z,1.60
2023-11-27T12:26:53.293Z,1.88
2023-11-27T12:29:23.637Z,0.85
2023-11-27T12:31:54.497Z,2.17
2023-11-27T12:34:27.276Z,2.40
2023-11-27T12:36:54.300Z,1.30
2023-11-27T12:39:27.051Z,2.40
2023-11-27T12:42:02.754Z,1.55
2023-11-27T12:44:32.794Z,3.72
2023-11-27T12:47:05.894Z,1.55
2023-11-27T12:49:36.340Z,0.90
2023-11-27T12:52:12.374Z,2.95
2023-11-27T12:54:39.275Z,1.90
2023-11-27T12:57:10.522Z,2.97
2023-11-27T12:59:41.334Z,3.15
2023-11-27T13:02:08.267Z,2.08
2023-11-27T13:04:39.318Z,1.25
2023-11-27T13:07:07.667Z,2.05
2023-11-27T13:09:34.490Z,2.78
2023-11-27T13:12:15.958Z,3.63
2023-11-27T13:14:43.960Z,1.38
2023-11-27T13:17:18.510Z,1.73
2023-11-27T13:19:55.437Z,2.40
2023-11-27T13:22:23.743Z,1.58
2023-11-27T13:24:51.951Z,2.10
2023-11-27T13:27:22.186Z,1.48
2023-11-27T13:29:51.634Z,1.20
2023-11-27T13:32:18.811Z,1.33
2023-11-27T13:34:56.470Z,1.67
2023-11-27T13:37:24.171Z,5.03
2023-11-27T13:39:59.181Z,3.33
2023-11-27T13:42:26.540Z,2.63
2023-11-27T13:44:53.448Z,3.40
2023-11-27T13:47:21.585Z,3.95
2023-11-27T13:49:56.652Z,3.20
2023-11-27T13:52:25.643Z,4.78
2023-11-27T13:54:53.083Z,4.95
2023-11-27T13:57:28.685Z,5.20
2023-11-27T13:59:58.124Z,4.43
2023-11-27T14:02:28.956Z,3.42
2023-11-27T14:04:56.369Z,4.55
2023-11-27T14:07:26.017Z,4.88
2023-11-27T14:09:55.935Z,4.30
2023-11-27T14:12:34.561Z,5.80
2023-11-27T14:15:10.408Z,4.78
2023-11-27T14:17:41.337Z,8.85
2023-11-27T14:20:29.862Z,7.57
2023-11-27T14:23:00.421Z,4.90
2023-11-27T14:25:46.415Z,5.15
2023-11-27T14:28:21.149Z,8.45
2023-11-27T14:30:51.154Z,11.00
2023-11-27T14:33:20.901Z,6.47
2023-11-27T14:35:50.192Z,5.05
2023-11-27T14:38:17.183Z,4.95
2023-11-27T14:40:43.908Z,3.85
2023-11-27T14:43:13.470Z,4.63
2023-11-27T14:45:50.686Z,4.38
2023-11-27T14:48:21.112Z,6.20
2023-11-27T14:50:48.179Z,4.95
2023-11-27T14:53:15.108Z,5.65
2023-11-27T14:55:41.711Z,8.07
2023-11-27T14:58:08.397Z,5.95
2023-11-27T15:00:37.193Z,5.88
2023-11-27T15:03:05.249Z,5.28
2023-11-27T15:05:31.899Z,7.97
2023-11-27T15:08:01.391Z,6.55
2023-11-27T15:10:28.454Z,6.40
2023-11-27T15:12:55.939Z,4.43
2023-11-27T15:15:27.283Z,4.00
2023-11-27T15:17:54.877Z,4.43
2023-11-27T15:20:24.440Z,4.72
2023-11-27T15:22:52.546Z,3.72
2023-11-27T15:25:23.500Z,3.75
2023-11-27T15:27:51.327Z,3.80
2023-11-27T15:30:18.659Z,3.45
2023-11-27T15:32:45.792Z,4.97
2023-11-27T15:35:12.938Z,2.63
2023-11-27T15:37:39.533Z,4.43
2023-11-27T15:40:10.056Z,3.42
2023-11-27T15:42:37.051Z,7.97
2023-11-27T15:45:03.730Z,3.88
2023-11-27T15:47:30.675Z,5.38
2023-11-27T15:49:58.421Z,3.00
2023-11-27T15:52:25.608Z,2.78
2023-11-27T15:54:52.144Z,3.53
2023-11-27T15:57:19.426Z,3.22
2023-11-27T15:59:47.098Z,3.78
2023-11-27T16:02:13.977Z,2.60
2023-11-27T16:04:40.714Z,3.35
2023-11-27T16:07:07.300Z,5.03
2023-11-27T16:09:34.523Z,3.13
2023-11-27T16:12:01.155Z,5.95
2023-11-27T16:14:29.610Z,4.07
2023-11-27T16:16:56.137Z,1.88
2023-11-27T16:19:25.328Z,2.90
2023-11-27T16:21:51.993Z,2.08
2023-11-27T16:24:19.102Z,2.47
2023-11-27T16:26:47.041Z,3.80
2023-11-27T16:29:13.946Z,4.45
2023-11-27T16:31:40.690Z,2.10
2023-11-27T16:34:07.430Z,1.73
2023-11-27T16:36:34.981Z,2.72
2023-11-27T16:39:05.016Z,2.83
2023-11-27T16:41:31.925Z,1.95
2023-11-27T16:43:58.701Z,3.65
2023-11-27T16:46:25.525Z,4.10
2023-11-27T16:48:52.454Z,3.50
2023-11-27T16:51:19.620Z,2.67
2023-11-27T16:53:47.055Z,2.17
2023-11-27T16:56:13.799Z,3.50
2023-11-27T16:58:40.792Z,2.53
2023-11-27T17:01:08.027Z,3.40
2023-11-27T17:03:35.951Z,1.42
2023-11-27T17:06:04.038Z,1.48
2023-11-27T17:08:31.219Z,4.90
2023-11-27T17:10:59.636Z,3.75
2023-11-27T17:13:26.248Z,1.67
2023-11-27T17:15:52.968Z,3.45
2023-11-27T17:18:19.679Z,2.90
2023-11-27T17:20:46.761Z,2.80
2023-11-27T17:23:13.694Z,1.73
2023-11-27T17:25:41.424Z,2.38
2023-11-27T17:28:12.697Z,1.65
2023-11-27T17:30:40.939Z,3.78
2023-11-27T17:33:07.994Z,5.35
2023-11-27T17:35:38.037Z,2.03
2023-11-27T17:38:12.204Z,2.90
2023-11-27T17:40:39.088Z,6.57
2023-11-27T17:43:07.844Z,4.60
2023-11-27T17:45:34.681Z,1.30
2023-11-27T17:48:02.308Z,2.45
2023-11-27T17:50:30.912Z,3.83
2023-11-27T17:52:58.697Z,3.35
2023-11-27T17:55:29.078Z,2.95
2023-11-27T17:57:57.491Z,1.95
2023-11-27T18:00:24.094Z,1.90
2023-11-27T18:02:51.488Z,2.03
2023-11-27T18:05:21.794Z,2.05
2023-11-27T18:07:48.765Z,0.88
2023-11-27T18:10:18.635Z,1.08
2023-11-27T18:12:45.477Z,1.27
2023-11-27T18:15:19.517Z,1.42
2023-11-27T18:17:47.128Z,3.72
2023-11-27T18:20:15.148Z,1.88
2023-11-27T18:22:45.252Z,1.30
2023-11-27T18:25:13.113Z,0.55
2023-11-27T18:27:39.802Z,1.08
2023-11-27T18:30:06.648Z,1.52
2023-11-27T18:32:33.199Z,2.55
2023-11-27T18:34:59.653Z,0.55
2023-11-27T18:37:26.123Z,0.73
2023-11-27T18:39:53.568Z,1.00
2023-11-27T18:42:32.844Z,0.95
2023-11-27T18:45:08.017Z,1.15
2023-11-27T18:47:38.166Z,0.75
2023-11-27T18:50:05.454Z,1.17
2023-11-27T18:52:32.558Z,1.35
2023-11-27T18:54:59.441Z,1.17
2023-11-27T18:57:27.960Z,2.13
2023-11-27T18:59:55.293Z,3.25
2023-11-27T19:02:22.393Z,1.80
2023-11-27T19:04:50.023Z,5.25
2023-11-27T19:07:16.944Z,4.20
2023-11-27T19:09:44.377Z,2.28
2023-11-27T19:12:18.629Z,1.95
2023-11-27T19:14:45.869Z,1.27
2023-11-27T19:17:13.640Z,1.83
2023-11-27T19:19:41.052Z,0.73
2023-11-27T19:22:08.169Z,1.13
2023-11-27T19:24:35.645Z,1.23
2023-11-27T19:27:05.012Z,2.13
2023-11-27T19:29:31.844Z,0.88
2023-11-27T19:31:58.515Z,0.77
2023-11-27T19:34:25.205Z,1.33
2023-11-27T19:36:52.233Z,1.48
2023-11-27T19:39:20.362Z,1.23
2023-11-27T19:41:52.257Z,0.80
2023-11-27T19:44:23.818Z,2.92
2023-11-27T19:46:56.376Z,1.67
2023-11-27T19:49:25.037Z,0.50
2023-11-27T19:51:51.678Z,2.10
2023-11-27T19:54:20.461Z,0.45
2023-11-27T19:56:47.822Z,1.33
2023-11-27T19:59:15.765Z,0.50
2023-11-27T20:01:42.967Z,3.65
2023-11-27T20:04:12.652Z,0.85
2023-11-27T20:06:42.966Z,0.68
2023-11-27T20:09:13.977Z,0.52
2023-11-27T20:11:42.184Z,1.98
2023-11-27T20:14:09.987Z,0.63
2023-11-27T20:16:41.386Z,0.40
2023-11-27T20:19:10.912Z,1.00
2023-11-27T20:21:41.237Z,0.30
2023-11-27T20:24:08.654Z,0.47
2023-11-27T20:26:36.798Z,0.40
2023-11-27T20:29:06.421Z,2.08
2023-11-27T20:31:37.710Z,0.70
2023-11-27T20:34:06.370Z,0.75
2023-11-27T20:36:38.772Z,0.85
2023-11-27T20:39:09.767Z,1.30
2023-11-27T20:41:36.397Z,0.37
2023-11-27T20:44:03.979Z,0.47
2023-11-27T20:46:30.657Z,0.88
2023-11-27T20:49:01.063Z,0.50
2023-11-27T20:51:32.957Z,0.85
2023-11-27T20:53:59.889Z,0.65
2023-11-27T20:56:29.539Z,1.23
2023-11-27T20:58:59.439Z,0.43
2023-11-27T21:01:31.424Z,1.40
2023-11-27T21:03:59.481Z,1.90
2023-11-27T21:06:27.174Z,0.40
2023-11-27T21:08:54.155Z,0.40
2023-11-27T21:11:21.762Z,0.85
2023-11-27T21:13:48.730Z,0.43
2023-11-27T21:16:15.752Z,0.45
2023-11-27T21:18:46.279Z,0.35
2023-11-27T21:21:13.595Z,0.73
2023-11-27T21:23:40.136Z,0.85
2023-11-27T21:26:06.766Z,1.50
2023-11-27T21:28:34.712Z,0.47
2023-11-27T21:31:01.586Z,1.48
2023-11-27T21:33:28.169Z,0.70
2023-11-27T21:35:57.222Z,0.40
2023-11-27T21:38:24.820Z,0.93
2023-11-27T21:40:51.422Z,0.85
2023-11-27T21:43:19.006Z,0.88
2023-11-27T21:45:45.563Z,0.77
2023-11-27T21:48:12.073Z,0.77
2023-11-27T21:50:38.585Z,0.35
2023-11-27T21:53:05.124Z,0.88
2023-11-27T21:55:31.715Z,1.15
2023-11-27T21:57:58.202Z,0.40
2023-11-27T22:00:24.921Z,0.52
2023-11-27T22:02:51.708Z,0.35
2023-11-27T22:05:18.831Z,0.20
2023-11-27T22:07:45.337Z,0.45
2023-11-27T22:10:11.970Z,0.50
2023-11-27T22:12:39.826Z,0.60
2023-11-27T22:15:06.553Z,0.90
2023-11-27T22:17:33.182Z,5.15
2023-11-27T22:19:59.704Z,0.30
2023-11-27T22:22:26.218Z,0.85
2023-11-27T22:24:52.810Z,1.00
2023-11-27T22:27:19.366Z,0.10
2023-11-27T22:29:45.904Z,0.45
2023-11-27T22:32:12.602Z,0.63
2023-11-27T22:34:39.157Z,1.35
2023-11-27T22:37:05.668Z,0.15
2023-11-27T22:39:32.197Z,0.45
2023-11-27T22:41:58.673Z,0.57
2023-11-27T22:44:25.229Z,0.52
2023-11-27T22:46:51.865Z,0.45
2023-11-27T22:49:18.363Z,0.52
2023-11-27T22:51:45.467Z,1.40
2023-11-27T22:54:11.972Z,1.33
2023-11-27T22:56:38.423Z,0.30
2023-11-27T22:59:11.626Z,0.32
2023-11-27T23:01:43.676Z,0.85
2023-11-27T23:04:10.497Z,0.43
2023-11-27T23:06:38.568Z,0.45
2023-11-27T23:09:06.128Z,0.20
2023-11-27T23:11:32.743Z,0.35
2023-11-27T23:13:59.288Z,1.08
2023-11-27T23:16:25.907Z,0.22
2023-11-27T23:18:52.547Z,1.10
2023-11-27T23:21:20.084Z,0.90
2023-11-27T23:23:46.749Z,0.45
2023-11-27T23:26:13.968Z,0.47
2023-11-27T23:28:40.765Z,0.52
2023-11-27T23:31:07.630Z,0.82
2023-11-27T23:33:35.040Z,0.30
2023-11-27T23:36:01.710Z,0.10
2023-11-27T23:38:28.148Z,0.57
2023-11-27T23:40:54.683Z,0.38
2023-11-27T23:43:21.435Z,0.20
2023-11-27T23:45:48.099Z,1.13
2023-11-27T23:48:14.712Z,0.47
2023-11-27T23:50:44.271Z,0.40
2023-11-27T23:53:11.679Z,0.43
2023-11-27T23:55:38.942Z,0.43
2023-11-27T23:58:05.564Z,0.25
